createdAt,value
2023-03-13T00:01:20.769Z,99949.56
2023-03-13T00:03:52.371Z,99947.56
2023-03-13T00:06:23.649Z,99954.44
2023-03-13T00:08:50.052Z,99939.41
2023-03-13T00:11:16.474Z,99934.53
2023-03-13T00:13:44.062Z,99937.31
2023-03-13T00:16:13.365Z,99935.81
2023-03-13T00:18:47.994Z,99931.75
2023-03-13T00:21:14.889Z,99933.38
2023-03-13T00:23:41.385Z,99928.41
2023-03-13T00:26:15.277Z,99921.94
2023-03-13T00:28:44.508Z,99922.38
2023-03-13T00:31:15.285Z,99917.00
2023-03-13T00:33:44.028Z,99905.44
2023-03-13T00:36:21.620Z,99896.69
2023-03-13T00:38:48.812Z,99893.00
2023-03-13T00:41:18.513Z,99893.91
2023-03-13T00:43:46.852Z,99889.34
2023-03-13T00:46:31.687Z,99887.06
2023-03-13T00:48:58.155Z,99876.00
2023-03-13T00:51:26.748Z,99873.53
2023-03-13T00:53:56.836Z,99873.09
2023-03-13T00:56:23.582Z,99865.22
2023-03-13T00:58:50.484Z,99853.94
2023-03-13T01:01:27.955Z,99852.63
2023-03-13T01:03:59.913Z,99850.50
2023-03-13T01:06:29.190Z,99852.38
2023-03-13T01:08:58.782Z,99843.56
2023-03-13T01:11:27.957Z,99837.69
2023-03-13T01:13:56.837Z,99833.72
2023-03-13T01:16:23.824Z,99830.81
2023-03-13T01:18:55.917Z,99820.09
2023-03-13T01:21:24.134Z,99816.19
2023-03-13T01:23:52.410Z,99819.41
2023-03-13T01:26:19.843Z,99806.78
2023-03-13T01:28:46.393Z,99808.28
2023-03-13T01:31:24.857Z,99799.47
2023-03-13T01:33:54.934Z,99799.47
2023-03-13T01:36:21.801Z,99793.34
2023-03-13T01:38:52.407Z,99791.66
2023-03-13T01:41:22.379Z,99784.94
2023-03-13T01:43:49.478Z,99785.97
2023-03-13T01:46:18.969Z,99786.22
2023-03-13T01:49:00.672Z,99783.50
2023-03-13T01:51:32.678Z,99781.59
2023-03-13T01:54:24.325Z,99768.81
2023-03-13T01:57:24.815Z,99774.41
2023-03-13T02:00:05.027Z,99767.09
2023-03-13T02:02:31.589Z,99769.00
2023-03-13T02:05:01.819Z,99758.56
2023-03-13T02:07:35.064Z,99758.56
2023-03-13T02:10:04.287Z,99756.50
2023-03-13T02:12:36.327Z,99745.22
2023-03-13T02:15:06.875Z,99745.66
2023-03-13T02:17:35.705Z,99745.66
2023-03-13T02:20:02.556Z,99743.59
2023-03-13T02:22:31.933Z,99733.53
2023-03-13T02:25:17.511Z,99733.97
2023-03-13T02:27:45.750Z,99718.84
2023-03-13T02:30:13.622Z,99720.56
2023-03-13T02:32:41.162Z,99721.78
2023-03-13T02:35:11.863Z,99726.84
2023-03-13T02:37:43.175Z,99710.47
2023-03-13T02:40:13.952Z,99707.75
2023-03-13T02:42:43.769Z,99706.91
2023-03-13T02:45:13.457Z,99697.88
2023-03-13T02:47:39.870Z,99697.47
2023-03-13T02:50:06.975Z,99692.84
2023-03-13T02:52:46.646Z,99686.16
2023-03-13T02:55:18.140Z,99701.47
2023-03-13T02:57:47.185Z,99688.84
2023-03-13T03:00:17.444Z,99671.00
2023-03-13T03:02:44.999Z,99675.22
2023-03-13T03:05:12.815Z,99665.13
2023-03-13T03:07:39.545Z,99673.53
2023-03-13T03:10:06.663Z,99658.19
2023-03-13T03:12:35.268Z,99658.38
2023-03-13T03:15:04.725Z,99649.34
2023-03-13T03:17:31.252Z,99651.25
2023-03-13T03:19:57.715Z,99646.59
2023-03-13T03:22:26.668Z,99645.13
2023-03-13T03:24:53.062Z,99639.66
2023-03-13T03:27:19.721Z,99636.75
2023-03-13T03:29:46.122Z,99633.59
2023-03-13T03:32:15.098Z,99627.09
2023-03-13T03:34:41.643Z,99625.63
2023-03-13T03:37:08.040Z,99639.47
2023-03-13T03:39:34.647Z,99634.44
2023-03-13T03:42:01.113Z,99632.72
2023-03-13T03:44:29.762Z,99621.56
2023-03-13T03:46:58.400Z,99619.50
2023-03-13T03:49:26.139Z,99619.50
2023-03-13T03:51:54.963Z,99623.47
2023-03-13T03:54:21.303Z,99620.56
2023-03-13T03:56:50.077Z,99619.09
2023-03-13T03:59:16.640Z,99614.47
2023-03-13T04:01:45.398Z,99611.47
2023-03-13T04:04:11.926Z,99615.44
2023-03-13T04:06:38.437Z,99605.19
2023-03-13T04:09:04.823Z,99622.59
2023-03-13T04:11:32.530Z,99623.03
2023-03-13T04:13:58.882Z,99628.47
2023-03-13T04:16:27.193Z,99617.38
2023-03-13T04:18:53.691Z,99612.06
2023-03-13T04:21:20.307Z,99613.94
2023-03-13T04:23:46.861Z,99620.47
2023-03-13T04:26:13.304Z,99618.78
2023-03-13T04:28:39.722Z,99609.97
2023-03-13T04:31:06.197Z,99612.06
2023-03-13T04:33:32.748Z,99611.22
2023-03-13T04:35:59.168Z,99603.03
2023-03-13T04:38:26.157Z,99607.66
2023-03-13T04:40:55.189Z,99608.53
2023-03-13T04:43:21.671Z,99600.97
2023-03-13T04:45:48.226Z,99599.94
2023-03-13T04:48:14.684Z,99604.50
2023-03-13T04:50:41.211Z,99594.44
2023-03-13T04:53:07.631Z,99602.88
2023-03-13T04:55:34.121Z,99597.81
2023-03-13T04:58:00.508Z,99588.34
2023-03-13T05:00:29.262Z,99592.75
2023-03-13T05:02:55.663Z,99596.97
2023-03-13T05:05:24.740Z,99592.78
2023-03-13T05:07:53.363Z,99587.91
2023-03-13T05:10:19.801Z,99596.72
2023-03-13T05:12:46.302Z,99588.53
2023-03-13T05:15:15.106Z,99588.53
2023-03-13T05:17:41.529Z,99593.78
2023-03-13T05:20:11.217Z,99591.91
2023-03-13T05:22:38.770Z,99589.78
2023-03-13T05:25:08.271Z,99580.53
2023-03-13T05:27:34.706Z,99591.25
2023-03-13T05:30:01.277Z,99582.81
2023-03-13T05:32:28.026Z,99575.69
2023-03-13T05:34:54.456Z,99580.09
2023-03-13T05:37:23.365Z,99565.97
2023-03-13T05:39:51.952Z,99563.88
2023-03-13T05:42:20.465Z,99560.75
2023-03-13T05:44:46.886Z,99565.13
2023-03-13T05:47:13.269Z,99570.34
2023-03-13T05:49:39.707Z,99571.44
2023-03-13T05:52:06.171Z,99566.41
2023-03-13T05:54:32.593Z,99563.22
2023-03-13T05:56:58.981Z,99565.72
2023-03-13T05:59:25.431Z,99557.72
2023-03-13T06:01:52.060Z,99557.50
2023-03-13T06:04:18.692Z,99544.00
2023-03-13T06:06:46.389Z,99546.09
2023-03-13T06:09:12.912Z,99539.13
2023-03-13T06:11:39.347Z,99533.25
2023-03-13T06:14:05.711Z,99539.97
2023-03-13T06:16:34.596Z,99541.75
2023-03-13T06:19:02.145Z,99535.88
2023-03-13T06:21:31.959Z,99532.72
2023-03-13T06:23:58.412Z,99533.72
2023-03-13T06:26:25.720Z,99539.38
2023-03-13T06:28:52.488Z,99532.16
2023-03-13T06:31:18.971Z,99537.69
2023-03-13T06:33:45.428Z,99543.56
2023-03-13T06:36:12.645Z,99544.84
2023-03-13T06:38:39.890Z,99556.56
2023-03-13T06:41:08.872Z,99560.81
2023-03-13T06:43:35.313Z,99543.34
2023-03-13T06:46:05.487Z,99557.84
2023-03-13T06:48:32.236Z,99555.28
2023-03-13T06:50:58.648Z,99540.53
2023-03-13T06:53:25.290Z,99533.19
2023-03-13T06:55:52.188Z,99532.72
2023-03-13T06:58:31.750Z,99535.63
2023-03-13T07:01:06.403Z,99545.09
2023-03-13T07:03:33.251Z,99538.13
2023-03-13T07:06:04.331Z,99524.25
2023-03-13T07:08:30.937Z,99513.91
2023-03-13T07:11:04.417Z,99504.56
2023-03-13T07:13:31.243Z,99500.31
2023-03-13T07:16:04.168Z,99493.72
2023-03-13T07:18:31.404Z,99493.06
2023-03-13T07:20:59.552Z,99482.28
2023-03-13T07:23:28.423Z,99485.41
2023-03-13T07:26:03.273Z,99477.59
2023-03-13T07:28:31.549Z,99488.59
2023-03-13T07:31:06.369Z,99492.22
2023-03-13T07:33:33.467Z,99493.78
2023-03-13T07:36:00.125Z,99510.88
2023-03-13T07:38:26.832Z,99516.53
2023-03-13T07:40:55.334Z,99527.22
2023-03-13T07:43:22.588Z,99531.72
2023-03-13T07:45:52.255Z,99526.31
2023-03-13T07:48:19.759Z,99525.41
2023-03-13T07:50:46.330Z,99524.63
2023-03-13T07:53:15.058Z,99521.25
2023-03-13T07:55:42.526Z,99513.56
2023-03-13T07:58:08.982Z,99506.66
2023-03-13T08:00:35.431Z,99505.25
2023-03-13T08:03:01.979Z,99511.34
2023-03-13T08:05:28.359Z,99525.19
2023-03-13T08:07:57.369Z,99526.13
2023-03-13T08:10:23.765Z,99531.38
2023-03-13T08:12:50.130Z,99529.47
2023-03-13T08:15:18.682Z,99519.19
2023-03-13T08:17:45.058Z,99521.31
2023-03-13T08:20:11.705Z,99519.66
2023-03-13T08:22:38.225Z,99525.66
2023-03-13T08:25:04.937Z,99520.16
2023-03-13T08:27:31.350Z,99525.66
2023-03-13T08:29:57.813Z,99522.59
2023-03-13T08:32:24.233Z,99523.44
2023-03-13T08:34:53.024Z,99520.84
2023-03-13T08:37:19.717Z,99517.84
2023-03-13T08:39:46.200Z,99530.72
2023-03-13T08:42:14.294Z,99535.34
2023-03-13T08:44:40.918Z,99536.13
2023-03-13T08:47:08.225Z,99529.69
2023-03-13T08:49:35.010Z,99519.31
2023-03-13T08:52:01.419Z,99520.84
2023-03-13T08:54:32.603Z,99528.44
2023-03-13T08:56:59.971Z,99528.44
2023-03-13T08:59:26.633Z,99524.53
2023-03-13T09:01:53.134Z,99523.81
2023-03-13T09:04:20.234Z,99531.47
2023-03-13T09:06:46.783Z,99533.38
2023-03-13T09:09:14.265Z,99539.44
2023-03-13T09:11:40.682Z,99533.00
2023-03-13T09:14:08.868Z,99520.78
2023-03-13T09:16:35.391Z,99521.50
2023-03-13T09:19:02.242Z,99517.91
2023-03-13T09:21:35.435Z,99531.53
2023-03-13T09:24:02.325Z,99518.34
2023-03-13T09:26:29.200Z,99518.31
2023-03-13T09:28:58.836Z,99516.81
2023-03-13T09:31:30.889Z,99519.38
2023-03-13T09:33:59.420Z,99525.25
2023-03-13T09:36:26.698Z,99527.31
2023-03-13T09:38:55.939Z,99517.75
2023-03-13T09:41:40.551Z,99509.66
2023-03-13T09:44:14.415Z,99502.00
2023-03-13T09:46:53.014Z,99501.41
2023-03-13T09:49:39.566Z,99508.22
2023-03-13T09:52:25.873Z,99497.50
2023-03-13T09:55:03.858Z,99485.28
2023-03-13T09:57:52.681Z,99493.75
2023-03-13T10:00:24.175Z,99493.41
2023-03-13T10:03:03.194Z,99473.47
2023-03-13T10:05:30.062Z,99481.53
2023-03-13T10:08:03.080Z,99471.72
2023-03-13T10:10:43.645Z,99466.94
2023-03-13T10:13:38.980Z,99464.00
2023-03-13T10:16:19.388Z,99467.28
2023-03-13T10:18:51.240Z,99457.16
2023-03-13T10:21:20.919Z,99442.13
2023-03-13T10:24:18.384Z,99468.91
2023-03-13T10:26:47.814Z,99464.81
2023-03-13T10:29:26.260Z,99459.94
2023-03-13T10:32:14.307Z,99452.22
2023-03-13T10:34:50.401Z,99453.03
2023-03-13T10:37:21.859Z,99450.84
2023-03-13T10:39:48.271Z,99444.75
2023-03-13T10:42:22.122Z,99443.44
2023-03-13T10:44:56.143Z,99442.50
2023-03-13T10:47:22.739Z,99426.25
2023-03-13T10:49:52.137Z,99427.38
2023-03-13T10:52:47.554Z,99426.78
2023-03-13T10:55:22.133Z,99420.56
2023-03-13T10:58:06.821Z,99418.34
2023-03-13T11:00:41.204Z,99416.91
2023-03-13T11:03:18.800Z,99415.44
2023-03-13T11:05:59.341Z,99414.28
2023-03-13T11:08:28.169Z,99406.13
2023-03-13T11:10:55.533Z,99411.66
2023-03-13T11:13:45.048Z,99406.22
2023-03-13T11:16:20.920Z,99393.78
2023-03-13T11:18:53.544Z,99384.16
2023-03-13T11:21:47.497Z,99367.44
2023-03-13T11:24:40.267Z,99363.59
2023-03-13T11:27:40.694Z,99352.09
2023-03-13T11:30:25.334Z,99355.03
2023-03-13T11:32:55.845Z,99338.03
2023-03-13T11:35:28.091Z,99336.56
2023-03-13T11:37:57.368Z,99328.13
2023-03-13T11:40:57.819Z,99330.88
2023-03-13T11:43:27.002Z,99305.56
2023-03-13T11:45:56.586Z,99312.00
2023-03-13T11:48:50.643Z,99292.66
2023-03-13T11:51:46.154Z,99303.19
2023-03-13T11:54:31.402Z,99290.63
2023-03-13T11:57:29.759Z,99296.78
2023-03-13T12:00:22.927Z,99295.97
2023-03-13T12:02:56.740Z,99287.41
2023-03-13T12:05:28.714Z,99281.00
2023-03-13T12:08:07.434Z,99263.31
2023-03-13T12:10:40.592Z,99259.16
2023-03-13T12:13:19.431Z,99255.59
2023-03-13T12:15:52.451Z,99232.63
2023-03-13T12:18:39.179Z,99247.28
2023-03-13T12:21:32.399Z,99232.03
2023-03-13T12:24:23.917Z,99223.75
2023-03-13T12:27:10.655Z,99210.78
2023-03-13T12:29:46.237Z,99206.03
2023-03-13T12:32:18.167Z,99186.75
2023-03-13T12:34:59.545Z,99186.16
2023-03-13T12:37:41.983Z,99187.56
2023-03-13T12:40:39.084Z,99190.59
2023-03-13T12:43:08.734Z,99172.38
2023-03-13T12:45:38.756Z,99186.19
2023-03-13T12:48:26.301Z,99159.03
2023-03-13T12:51:07.011Z,99154.06
2023-03-13T12:53:42.769Z,99155.72
2023-03-13T12:56:12.163Z,99163.22
2023-03-13T12:59:00.613Z,99149.94
2023-03-13T13:01:48.202Z,99123.97
2023-03-13T13:04:40.443Z,99132.00
2023-03-13T13:07:19.893Z,99130.88
2023-03-13T13:10:10.802Z,99141.38
2023-03-13T13:12:39.212Z,99129.19
2023-03-13T13:15:25.093Z,99099.84
2023-03-13T13:18:14.846Z,99125.84
2023-03-13T13:20:48.937Z,99121.34
2023-03-13T13:23:48.058Z,99130.41
2023-03-13T13:26:26.798Z,99126.44
2023-03-13T13:28:54.116Z,99121.16
2023-03-13T13:31:45.824Z,99119.00
2023-03-13T13:34:31.130Z,99086.00
2023-03-13T13:36:59.622Z,99088.84
2023-03-13T13:39:34.587Z,99093.09
2023-03-13T13:42:30.567Z,99104.19
2023-03-13T13:44:59.657Z,99091.94
2023-03-13T13:47:28.233Z,99074.72
2023-03-13T13:49:57.053Z,99080.16
2023-03-13T13:52:38.396Z,99075.44
2023-03-13T13:55:28.335Z,99076.56
2023-03-13T13:58:03.248Z,99038.34
2023-03-13T14:00:40.883Z,99031.06
2023-03-13T14:03:25.650Z,99040.28
2023-03-13T14:05:56.077Z,99057.66
2023-03-13T14:08:41.205Z,99036.34
2023-03-13T14:11:37.219Z,99032.03
2023-03-13T14:14:22.366Z,99028.19
2023-03-13T14:16:51.826Z,99018.88
2023-03-13T14:19:21.681Z,99026.19
2023-03-13T14:21:48.287Z,99024.00
2023-03-13T14:24:16.025Z,99012.19
2023-03-13T14:26:46.198Z,98986.38
2023-03-13T14:29:25.349Z,98986.44
2023-03-13T14:31:54.649Z,98971.94
2023-03-13T14:34:22.311Z,98977.72
2023-03-13T14:37:10.951Z,98969.75
2023-03-13T14:39:45.672Z,98965.19
2023-03-13T14:42:14.174Z,98958.88
2023-03-13T14:44:46.550Z,98931.00
2023-03-13T14:47:33.286Z,98933.44
2023-03-13T14:50:12.398Z,98915.69
2023-03-13T14:52:49.020Z,98907.38
2023-03-13T14:55:21.878Z,98899.13
2023-03-13T14:58:20.441Z,98852.00
2023-03-13T15:00:50.606Z,98858.34
2023-03-13T15:03:17.018Z,98864.13
2023-03-13T15:05:45.435Z,98861.41
2023-03-13T15:08:23.294Z,98829.63
2023-03-13T15:10:50.548Z,98836.16
2023-03-13T15:13:20.058Z,98821.28
2023-03-13T15:15:50.369Z,98834.44
2023-03-13T15:18:23.490Z,98832.78
2023-03-13T15:20:58.693Z,98839.31
2023-03-13T15:23:25.844Z,98838.91
2023-03-13T15:25:52.284Z,98849.09
2023-03-13T15:28:23.764Z,98828.44
2023-03-13T15:30:52.013Z,98843.91
2023-03-13T15:33:21.646Z,98833.38
2023-03-13T15:35:49.069Z,98835.56
2023-03-13T15:38:18.633Z,98804.19
2023-03-13T15:40:45.693Z,98829.94
2023-03-13T15:43:13.252Z,98828.75
2023-03-13T15:45:42.176Z,98813.19
2023-03-13T15:48:23.339Z,98810.19
2023-03-13T15:50:51.977Z,98801.38
2023-03-13T15:53:24.420Z,98776.53
2023-03-13T15:55:55.024Z,98771.72
2023-03-13T15:58:21.511Z,98751.41
2023-03-13T16:00:49.045Z,98735.44
2023-03-13T16:03:29.361Z,98739.09
2023-03-13T16:05:59.290Z,98735.44
2023-03-13T16:08:37.040Z,98731.63
2023-03-13T16:11:04.034Z,98709.56
2023-03-13T16:13:31.406Z,98715.19
2023-03-13T16:15:58.627Z,98751.16
2023-03-13T16:18:26.186Z,98819.81
2023-03-13T16:20:53.008Z,98864.50
2023-03-13T16:23:21.802Z,98852.97
2023-03-13T16:25:51.263Z,98827.56
2023-03-13T16:28:19.998Z,98804.97
2023-03-13T16:30:49.268Z,98780.13
2023-03-13T16:33:17.975Z,98782.91
2023-03-13T16:35:44.879Z,98761.91
2023-03-13T16:38:11.784Z,98754.22
2023-03-13T16:40:38.607Z,98755.00
2023-03-13T16:43:05.217Z,98740.91
2023-03-13T16:45:31.723Z,98741.47
2023-03-13T16:48:00.709Z,98711.69
2023-03-13T16:50:32.947Z,98699.00
2023-03-13T16:53:01.894Z,98690.19
2023-03-13T16:55:36.382Z,98687.41
2023-03-13T16:58:06.752Z,98681.63
2023-03-13T17:00:33.395Z,98664.50
2023-03-13T17:03:01.383Z,98671.34
2023-03-13T17:05:28.314Z,98675.97
2023-03-13T17:07:54.915Z,98688.25
2023-03-13T17:10:24.697Z,98691.78
2023-03-13T17:12:53.795Z,98703.28
2023-03-13T17:15:20.685Z,98676.25
2023-03-13T17:17:52.349Z,98682.81
2023-03-13T17:20:21.976Z,98674.09
2023-03-13T17:22:48.586Z,98684.28
2023-03-13T17:25:15.447Z,98697.38
2023-03-13T17:27:43.302Z,98642.56
2023-03-13T17:30:22.272Z,98666.28
2023-03-13T17:32:54.679Z,98650.72
2023-03-13T17:35:24.582Z,98650.88
2023-03-13T17:37:53.409Z,98653.25
2023-03-13T17:40:26.779Z,98670.19
2023-03-13T17:42:53.441Z,98666.53
2023-03-13T17:45:20.085Z,98668.97
2023-03-13T17:47:47.245Z,98678.78
2023-03-13T17:50:27.266Z,98675.97
2023-03-13T17:52:56.197Z,98644.19
2023-03-13T17:55:23.077Z,98628.59
2023-03-13T17:57:49.614Z,98597.56
2023-03-13T18:00:31.735Z,98580.63
2023-03-13T18:02:59.149Z,98577.53
2023-03-13T18:05:26.324Z,98568.97
2023-03-13T18:07:57.771Z,98585.88
2023-03-13T18:10:27.038Z,98610.97
2023-03-13T18:12:53.783Z,98633.44
2023-03-13T18:15:22.309Z,98664.34
2023-03-13T18:17:49.505Z,98683.78
2023-03-13T18:20:21.782Z,98697.47
2023-03-13T18:22:48.596Z,98684.81
2023-03-13T18:25:15.259Z,98640.69
2023-03-13T18:28:11.418Z,98615.47
2023-03-13T18:30:39.493Z,98602.53
2023-03-13T18:33:11.146Z,98639.13
2023-03-13T18:35:37.960Z,98645.53
2023-03-13T18:38:04.506Z,98644.69
2023-03-13T18:40:31.281Z,98653.88
2023-03-13T18:43:00.326Z,98650.19
2023-03-13T18:45:27.282Z,98644.13
2023-03-13T18:47:58.738Z,98643.72
2023-03-13T18:50:32.354Z,98645.81
2023-03-13T18:53:02.802Z,98636.53
2023-03-13T18:55:31.234Z,98652.69
2023-03-13T18:57:57.952Z,98681.47
2023-03-13T19:00:29.680Z,98696.25
2023-03-13T19:02:56.330Z,98681.41
2023-03-13T19:05:23.310Z,98681.97
2023-03-13T19:07:49.770Z,98699.00
2023-03-13T19:10:24.179Z,98755.59
2023-03-13T19:12:51.882Z,98784.81
2023-03-13T19:15:21.911Z,98776.81
2023-03-13T19:17:48.488Z,98786.88
2023-03-13T19:20:17.899Z,98783.81
2023-03-13T19:22:44.496Z,98796.09
2023-03-13T19:25:11.897Z,98836.44
2023-03-13T19:27:43.667Z,98846.38
2023-03-13T19:30:25.187Z,98833.69
2023-03-13T19:32:54.085Z,98835.06
2023-03-13T19:35:23.167Z,98829.25
2023-03-13T19:37:51.995Z,98819.97
2023-03-13T19:40:21.293Z,98810.25
2023-03-13T19:42:47.701Z,98813.81
2023-03-13T19:45:14.507Z,98828.16
2023-03-13T19:47:41.024Z,98836.13
2023-03-13T19:50:17.300Z,98843.91
2023-03-13T19:52:45.444Z,98848.44
2023-03-13T19:55:14.686Z,98847.25
2023-03-13T19:57:41.593Z,98854.44
2023-03-13T20:00:14.033Z,98835.84
2023-03-13T20:02:41.508Z,98822.41
2023-03-13T20:05:10.292Z,98814.81
2023-03-13T20:07:37.470Z,98813.38
2023-03-13T20:10:05.401Z,98798.91
2023-03-13T20:12:32.167Z,98773.31
2023-03-13T20:14:58.685Z,98771.53
2023-03-13T20:17:25.248Z,98740.69
2023-03-13T20:23:05.600Z,98739.25
2023-03-13T20:25:32.204Z,98721.09
2023-03-13T20:27:58.657Z,98717.56
2023-03-13T20:30:25.058Z,98705.31
2023-03-13T20:32:59.328Z,98700.00
2023-03-13T20:35:27.900Z,98683.84
2023-03-13T20:37:54.646Z,98669.84
2023-03-13T20:40:21.180Z,98665.13
2023-03-13T20:42:49.742Z,98668.78
2023-03-13T20:45:16.326Z,98651.91
2023-03-13T20:47:42.888Z,98648.13
2023-03-13T20:50:09.906Z,98668.03
2023-03-13T20:52:36.445Z,98682.41
2023-03-13T20:55:03.034Z,98691.31
2023-03-13T20:57:29.435Z,98681.34
2023-03-13T20:59:56.079Z,98699.47
2023-03-13T21:02:25.017Z,98675.75
2023-03-13T21:04:53.712Z,98660.56
2023-03-13T21:07:20.864Z,98642.88
2023-03-13T21:09:47.326Z,98646.56
2023-03-13T21:12:13.669Z,98652.25
2023-03-13T21:14:44.789Z,98658.41
2023-03-13T21:17:15.733Z,98662.78
2023-03-13T21:19:43.796Z,98674.41
2023-03-13T21:22:10.510Z,98678.44
2023-03-13T21:24:37.003Z,98680.59
2023-03-13T21:27:03.432Z,98663.03
2023-03-13T21:29:29.852Z,98665.97
2023-03-13T21:31:56.336Z,98666.19
2023-03-13T21:34:22.970Z,98668.13
2023-03-13T21:36:54.494Z,98663.94
2023-03-13T21:39:21.171Z,98660.63
2023-03-13T21:41:49.912Z,98675.31
2023-03-13T21:44:19.633Z,98677.81
2023-03-13T21:46:48.573Z,98679.72
2023-03-13T21:49:15.188Z,98669.03
2023-03-13T21:51:41.764Z,98661.69
2023-03-13T21:54:08.189Z,98649.25
2023-03-13T21:56:37.743Z,98638.81
2023-03-13T21:59:04.179Z,98632.63
2023-03-13T22:01:33.692Z,98619.00
2023-03-13T22:04:02.672Z,98614.59
2023-03-13T22:06:29.154Z,98627.03
2023-03-13T22:09:00.429Z,98630.97
2023-03-13T22:11:27.989Z,98625.50
2023-03-13T22:13:54.517Z,98617.34
2023-03-13T22:16:26.759Z,98631.19
2023-03-13T22:18:54.986Z,98639.38
2023-03-13T22:21:21.524Z,98655.97
2023-03-13T22:23:47.921Z,98653.72
2023-03-13T22:26:14.838Z,98648.50
2023-03-13T22:28:43.826Z,98655.09
2023-03-13T22:31:11.674Z,98662.69
2023-03-13T22:33:38.081Z,98651.78
2023-03-13T22:36:05.143Z,98634.25
2023-03-13T22:38:31.634Z,98611.81
2023-03-13T22:41:00.971Z,98618.47
2023-03-13T22:43:27.921Z,98617.28
2023-03-13T22:45:55.723Z,98611.22
2023-03-13T22:48:22.138Z,98615.00
2023-03-13T22:50:48.618Z,98618.31
2023-03-13T22:53:17.321Z,98603.06
2023-03-13T22:55:43.735Z,98602.78
2023-03-13T22:58:10.150Z,98607.78
2023-03-13T23:00:39.115Z,98620.56
2023-03-13T23:03:05.493Z,98599.81
2023-03-13T23:05:36.954Z,98609.31
2023-03-13T23:08:03.507Z,98639.59
2023-03-13T23:10:30.219Z,98650.41
2023-03-13T23:12:59.260Z,98635.66
2023-03-13T23:15:33.469Z,98652.28
2023-03-13T23:18:04.809Z,98668.06
2023-03-13T23:20:31.189Z,98683.16
2023-03-13T23:22:57.759Z,98677.00
2023-03-13T23:25:24.265Z,98681.41
2023-03-13T23:27:51.102Z,98670.72
2023-03-13T23:30:18.360Z,98675.72
2023-03-13T23:32:46.735Z,98683.88
2023-03-13T23:35:19.055Z,98695.41
2023-03-13T23:37:49.207Z,98709.63
2023-03-13T23:40:15.993Z,98703.81
2023-03-13T23:42:46.744Z,98702.13
2023-03-13T23:45:14.090Z,98706.91
2023-03-13T23:47:41.987Z,98704.63
2023-03-13T23:50:12.371Z,98716.44
2023-03-13T23:52:39.852Z,98710.81
2023-03-13T23:55:07.107Z,98728.91
2023-03-13T23:57:33.813Z,98727.13
